createdAt,value
2017-09-21T00:00:04.725Z,10.86
2017-09-21T00:02:32.192Z,10.82
2017-09-21T00:04:59.680Z,10.76
2017-09-21T00:07:27.153Z,10.70
2017-09-21T00:09:54.648Z,10.74
2017-09-21T00:12:22.101Z,10.69
2017-09-21T00:14:49.589Z,10.69
2017-09-21T00:17:17.038Z,10.64
2017-09-21T00:19:44.489Z,10.52
2017-09-21T00:22:11.977Z,10.52
2017-09-21T00:24:39.430Z,10.57
2017-09-21T00:27:06.909Z,10.49
2017-09-21T00:29:34.368Z,10.44
2017-09-21T00:32:01.849Z,10.40
2017-09-21T00:34:29.293Z,10.45
2017-09-21T00:36:56.777Z,10.50
2017-09-21T00:39:24.239Z,10.42
2017-09-21T00:41:51.709Z,10.36
2017-09-21T00:44:19.172Z,10.35
2017-09-21T00:46:46.696Z,10.44
2017-09-21T00:49:14.179Z,10.35
2017-09-21T00:51:41.653Z,10.32
2017-09-21T00:54:09.127Z,10.34
2017-09-21T00:56:36.580Z,10.18
2017-09-21T00:59:04.089Z,10.16
2017-09-21T01:01:31.582Z,10.21
2017-09-21T01:03:59.061Z,10.04
2017-09-21T01:06:26.516Z,9.99
2017-09-21T01:08:54.020Z,9.93
2017-09-21T01:11:21.462Z,9.91
2017-09-21T01:13:48.941Z,9.98
2017-09-21T01:16:16.394Z,10.04
2017-09-21T01:18:43.878Z,10.06
2017-09-21T01:21:11.357Z,9.98
2017-09-21T01:23:38.825Z,10.00
2017-09-21T01:26:06.354Z,9.98
2017-09-21T01:28:33.805Z,9.94
2017-09-21T01:31:01.336Z,10.02
2017-09-21T01:33:28.815Z,10.12
2017-09-21T01:35:56.305Z,10.02
2017-09-21T01:38:23.768Z,9.85
2017-09-21T01:40:51.216Z,9.84
2017-09-21T01:43:18.679Z,9.69
2017-09-21T01:45:46.133Z,9.46
2017-09-21T01:48:13.613Z,9.43
2017-09-21T01:50:41.065Z,9.51
2017-09-21T01:53:08.537Z,9.58
2017-09-21T01:55:36.017Z,9.61
2017-09-21T01:58:03.530Z,9.64
2017-09-21T02:00:31.022Z,9.56
2017-09-21T02:02:58.464Z,9.62
2017-09-21T02:05:25.945Z,9.70
2017-09-21T02:07:53.405Z,9.74
2017-09-21T02:10:20.883Z,9.74
2017-09-21T02:12:48.344Z,9.64
2017-09-21T02:15:15.828Z,9.54
2017-09-21T02:17:43.297Z,9.53
2017-09-21T02:20:10.780Z,9.64
2017-09-21T02:22:38.231Z,9.71
2017-09-21T02:25:05.706Z,9.62
2017-09-21T02:27:33.201Z,9.52
2017-09-21T02:30:00.637Z,9.55
2017-09-21T02:32:28.117Z,9.61
2017-09-21T02:34:55.572Z,9.64
2017-09-21T02:37:23.062Z,9.64
2017-09-21T02:39:50.519Z,9.57
2017-09-21T02:42:18.014Z,9.48
2017-09-21T02:44:45.475Z,9.44
2017-09-21T02:47:13.083Z,9.44
2017-09-21T02:49:40.517Z,9.41
2017-09-21T02:52:09.058Z,9.38
2017-09-21T02:54:36.533Z,9.40
2017-09-21T02:57:03.989Z,9.49
2017-09-21T02:59:31.469Z,9.45
2017-09-21T03:01:58.906Z,9.49
2017-09-21T03:04:26.384Z,9.37
2017-09-21T03:06:53.820Z,9.30
2017-09-21T03:09:21.290Z,9.32
2017-09-21T03:11:48.754Z,9.16
2017-09-21T03:14:16.375Z,9.29
2017-09-21T03:16:43.836Z,9.17
2017-09-21T03:19:11.313Z,9.11
2017-09-21T03:21:38.782Z,8.73
2017-09-21T03:24:06.221Z,8.71
2017-09-21T03:26:33.684Z,8.92
2017-09-21T03:29:01.152Z,9.04
2017-09-21T03:31:28.621Z,9.09
2017-09-21T03:33:56.062Z,9.04
2017-09-21T03:36:23.503Z,9.05
2017-09-21T03:38:50.981Z,9.13
2017-09-21T03:41:18.449Z,9.04
2017-09-21T03:43:45.920Z,9.10
2017-09-21T03:46:13.606Z,9.03
2017-09-21T03:48:41.080Z,9.09
2017-09-21T03:51:08.571Z,9.09
2017-09-21T03:53:36.057Z,9.05
2017-09-21T03:56:03.506Z,8.98
2017-09-21T03:58:30.972Z,8.98
2017-09-21T04:00:58.420Z,8.82
2017-09-21T04:03:25.896Z,8.68
2017-09-21T04:05:53.344Z,8.81
2017-09-21T04:08:20.817Z,8.85
2017-09-21T04:10:48.268Z,8.86
2017-09-21T04:13:15.749Z,8.81
2017-09-21T04:15:43.220Z,8.76
2017-09-21T04:18:10.665Z,8.81
2017-09-21T04:20:38.159Z,8.72
2017-09-21T04:23:05.604Z,8.70
2017-09-21T04:25:33.099Z,8.78
2017-09-21T04:28:00.551Z,8.89
2017-09-21T04:30:28.017Z,8.90
2017-09-21T04:32:55.491Z,8.82
2017-09-21T04:35:22.956Z,8.80
2017-09-21T04:37:50.420Z,8.75
2017-09-21T04:40:17.867Z,8.95
2017-09-21T04:42:45.426Z,8.90
2017-09-21T04:45:12.894Z,8.97
2017-09-21T04:47:40.365Z,8.90
2017-09-21T04:50:07.833Z,8.91
2017-09-21T04:52:35.301Z,8.88
2017-09-21T04:55:02.785Z,8.80
2017-09-21T04:57:30.254Z,8.85
2017-09-21T04:59:57.744Z,8.88
2017-09-21T05:02:25.213Z,8.84
2017-09-21T05:04:52.688Z,8.94
2017-09-21T05:07:20.145Z,9.02
2017-09-21T05:09:47.602Z,9.03
2017-09-21T05:12:15.084Z,9.04
2017-09-21T05:14:42.529Z,9.01
2017-09-21T05:17:10.004Z,8.99
2017-09-21T05:19:37.480Z,8.92
2017-09-21T05:22:05.069Z,8.79
2017-09-21T05:24:32.528Z,8.83
2017-09-21T05:26:59.978Z,8.87
2017-09-21T05:29:27.454Z,8.84
2017-09-21T05:31:54.902Z,8.81
2017-09-21T05:34:22.394Z,8.77
2017-09-21T05:36:49.861Z,8.74
2017-09-21T05:39:17.362Z,8.84
2017-09-21T05:41:44.818Z,9.00
2017-09-21T05:44:12.453Z,8.99
2017-09-21T05:46:40.623Z,9.00
2017-09-21T05:49:08.115Z,9.00
2017-09-21T05:51:35.576Z,9.01
2017-09-21T05:54:03.037Z,8.99
2017-09-21T05:56:30.524Z,8.99
2017-09-21T05:58:57.985Z,9.03
2017-09-21T06:01:25.465Z,8.97
2017-09-21T06:03:52.920Z,8.86
2017-09-21T06:06:20.410Z,8.83
2017-09-21T06:08:47.878Z,8.90
2017-09-21T06:11:15.351Z,9.12
2017-09-21T06:13:42.838Z,9.19
2017-09-21T06:16:10.379Z,9.17
2017-09-21T06:18:37.829Z,9.09
2017-09-21T06:21:05.365Z,8.98
2017-09-21T06:23:32.817Z,9.06
2017-09-21T06:26:00.328Z,9.20
2017-09-21T06:28:27.817Z,9.27
2017-09-21T06:30:55.261Z,9.29
2017-09-21T06:33:22.844Z,9.33
2017-09-21T06:35:50.300Z,9.37
2017-09-21T06:38:17.982Z,9.32
2017-09-21T06:40:45.480Z,9.40
2017-09-21T06:43:12.960Z,9.40
2017-09-21T06:45:40.452Z,9.46
2017-09-21T06:48:07.929Z,9.49
2017-09-21T06:50:35.410Z,9.54
2017-09-21T06:53:02.896Z,9.61
2017-09-21T06:55:30.377Z,9.68
2017-09-21T06:57:57.831Z,9.85
2017-09-21T07:00:25.309Z,9.91
2017-09-21T07:02:52.768Z,10.03
2017-09-21T07:05:20.252Z,10.18
2017-09-21T07:07:47.720Z,10.31
2017-09-21T07:10:15.211Z,10.39
2017-09-21T07:12:42.709Z,10.33
2017-09-21T07:15:10.162Z,10.48
2017-09-21T07:17:37.645Z,10.52
2017-09-21T07:20:05.141Z,10.68
2017-09-21T07:22:32.624Z,10.71
2017-09-21T07:25:00.113Z,10.81
2017-09-21T07:27:27.599Z,10.92
2017-09-21T07:29:55.070Z,10.91
2017-09-21T07:32:22.549Z,10.92
2017-09-21T07:34:50.024Z,11.07
2017-09-21T07:37:17.545Z,11.14
2017-09-21T07:39:45.070Z,11.25
2017-09-21T07:42:12.552Z,11.35
2017-09-21T07:44:40.018Z,11.51
2017-09-21T07:47:07.524Z,11.55
2017-09-21T07:49:35.066Z,11.57
2017-09-21T07:52:02.565Z,11.70
2017-09-21T07:54:30.061Z,11.80
2017-09-21T07:56:57.518Z,12.03
2017-09-21T07:59:24.995Z,12.23
2017-09-21T08:01:52.470Z,12.35
2017-09-21T08:04:19.976Z,12.37
2017-09-21T08:06:47.444Z,12.59
2017-09-21T08:09:14.983Z,12.79
2017-09-21T08:11:42.433Z,12.88
2017-09-21T08:14:10.073Z,12.99
2017-09-21T08:16:37.562Z,13.13
2017-09-21T08:19:05.017Z,13.25
2017-09-21T08:21:32.507Z,13.36
2017-09-21T08:24:00.010Z,13.38
2017-09-21T08:26:27.529Z,13.40
2017-09-21T08:28:55.075Z,13.59
2017-09-21T08:31:22.565Z,13.71
2017-09-21T08:33:50.112Z,13.77
2017-09-21T08:36:17.613Z,13.98
2017-09-21T08:38:45.125Z,14.11
2017-09-21T08:41:12.624Z,14.26
2017-09-21T08:43:40.143Z,14.38
2017-09-21T08:46:07.653Z,14.46
2017-09-21T08:48:35.270Z,14.63
2017-09-21T08:51:02.754Z,14.72
2017-09-21T08:53:30.265Z,14.84
2017-09-21T08:55:57.726Z,15.00
2017-09-21T08:58:25.244Z,15.13
2017-09-21T09:00:52.733Z,15.28
2017-09-21T09:03:20.227Z,15.35
2017-09-21T09:05:47.685Z,15.37
2017-09-21T09:08:15.674Z,15.44
2017-09-21T09:10:43.193Z,15.59
2017-09-21T09:13:10.653Z,15.69
2017-09-21T09:15:38.144Z,15.77
2017-09-21T09:18:05.613Z,15.88
2017-09-21T09:20:33.126Z,15.94
2017-09-21T09:23:01.009Z,16.03
2017-09-21T09:25:28.471Z,16.03
2017-09-21T09:27:55.933Z,16.15
2017-09-21T09:30:23.421Z,16.22
2017-09-21T09:32:50.904Z,16.33
2017-09-21T09:35:18.389Z,16.45
2017-09-21T09:37:45.865Z,16.56
2017-09-21T09:40:13.349Z,16.65
2017-09-21T09:42:40.885Z,16.69
2017-09-21T09:45:08.361Z,16.73
2017-09-21T09:47:35.845Z,16.85
2017-09-21T09:50:03.368Z,16.89
2017-09-21T09:52:30.936Z,16.99
2017-09-21T09:54:59.232Z,17.05
2017-09-21T09:57:26.703Z,17.02
2017-09-21T09:59:54.190Z,17.15
2017-09-21T10:02:21.657Z,17.22
2017-09-21T10:04:49.512Z,17.30
2017-09-21T10:07:16.968Z,17.38
2017-09-21T10:09:44.485Z,17.33
2017-09-21T10:12:12.048Z,17.41
2017-09-21T10:14:39.563Z,17.49
2017-09-21T10:17:07.068Z,17.39
2017-09-21T10:19:34.530Z,17.51
2017-09-21T10:22:02.023Z,17.69
2017-09-21T10:24:29.476Z,17.84
2017-09-21T10:26:56.956Z,17.93
2017-09-21T10:29:24.437Z,18.02
2017-09-21T10:31:51.882Z,18.07
2017-09-21T10:34:19.434Z,18.12
2017-09-21T10:36:46.918Z,18.27
2017-09-21T10:39:14.416Z,18.34
2017-09-21T10:41:42.065Z,18.28
2017-09-21T10:44:09.541Z,18.30
2017-09-21T10:46:37.037Z,18.42
2017-09-21T10:49:04.514Z,18.56
2017-09-21T10:51:32.048Z,18.59
2017-09-21T10:53:59.544Z,18.70
2017-09-21T10:56:27.033Z,18.82
2017-09-21T10:58:54.574Z,18.96
2017-09-21T11:01:22.227Z,18.98
2017-09-21T11:03:49.697Z,19.12
2017-09-21T11:06:17.153Z,19.25
2017-09-21T11:08:44.638Z,19.39
2017-09-21T11:11:12.076Z,19.43
2017-09-21T11:13:39.553Z,19.57
2017-09-21T11:16:07.001Z,19.69
2017-09-21T11:18:34.481Z,19.63
2017-09-21T11:21:02.010Z,19.74
2017-09-21T11:23:29.534Z,19.89
2017-09-21T11:25:57.449Z,19.95
2017-09-21T11:28:24.892Z,20.00
2017-09-21T11:30:52.375Z,20.02
2017-09-21T11:33:19.926Z,20.01
2017-09-21T11:35:48.001Z,19.97
2017-09-21T11:38:15.441Z,19.98
2017-09-21T11:40:42.997Z,20.05
2017-09-21T11:43:10.477Z,20.09
2017-09-21T11:45:38.008Z,20.20
2017-09-21T11:48:05.461Z,20.37
2017-09-21T11:50:32.938Z,20.22
2017-09-21T11:53:00.394Z,20.14
2017-09-21T11:55:27.873Z,20.15
2017-09-21T11:57:55.373Z,20.24
2017-09-21T12:00:22.878Z,20.28
2017-09-21T12:02:50.330Z,20.46
2017-09-21T12:05:17.832Z,20.48
2017-09-21T12:07:45.327Z,20.48
2017-09-21T12:10:12.775Z,20.38
2017-09-21T12:12:40.253Z,20.46
2017-09-21T12:15:07.719Z,20.40
2017-09-21T12:17:35.582Z,20.50
2017-09-21T12:20:04.000Z,20.63
2017-09-21T12:22:31.496Z,21.02
2017-09-21T12:24:58.941Z,21.22
2017-09-21T12:27:26.392Z,21.24
2017-09-21T12:29:53.901Z,21.41
2017-09-21T12:32:21.360Z,21.43
2017-09-21T12:34:48.824Z,21.33
2017-09-21T12:37:16.287Z,21.35
2017-09-21T12:39:43.773Z,21.65
2017-09-21T12:42:11.295Z,21.63
2017-09-21T12:44:38.953Z,21.49
2017-09-21T12:47:06.372Z,21.45
2017-09-21T12:49:34.676Z,21.38
2017-09-21T12:52:02.162Z,21.25
2017-09-21T12:54:29.628Z,21.17
2017-09-21T12:56:57.140Z,21.42
2017-09-21T12:59:25.983Z,21.63
2017-09-21T13:01:53.470Z,21.80
2017-09-21T13:04:21.197Z,21.92
2017-09-21T13:06:48.698Z,22.22
2017-09-21T13:09:16.146Z,22.32
2017-09-21T13:11:43.642Z,22.40
2017-09-21T13:14:11.149Z,22.43
2017-09-21T13:16:38.595Z,22.56
2017-09-21T13:19:06.070Z,22.72
2017-09-21T13:21:33.549Z,22.82
2017-09-21T13:24:01.033Z,22.86
2017-09-21T13:26:28.490Z,23.06
2017-09-21T13:28:55.994Z,23.24
2017-09-21T13:31:23.464Z,23.36
2017-09-21T13:33:50.947Z,23.02
2017-09-21T13:36:18.413Z,23.09
2017-09-21T13:38:45.890Z,23.21
2017-09-21T13:41:13.374Z,23.01
2017-09-21T13:43:40.967Z,23.07
2017-09-21T13:46:08.490Z,23.24
2017-09-21T13:48:35.952Z,23.39
2017-09-21T13:51:03.437Z,23.51
2017-09-21T13:53:30.939Z,23.65
2017-09-21T13:55:58.439Z,23.96
2017-09-21T13:58:25.924Z,24.06
2017-09-21T14:00:53.401Z,24.37
2017-09-21T14:03:20.944Z,24.69
2017-09-21T14:05:48.605Z,24.79
2017-09-21T14:08:16.098Z,24.60
2017-09-21T14:10:43.675Z,24.76
2017-09-21T14:13:11.183Z,24.51
2017-09-21T14:15:38.867Z,24.42
2017-09-21T14:18:06.372Z,24.57
2017-09-21T14:20:34.132Z,24.76
2017-09-21T14:23:01.655Z,24.82
2017-09-21T14:25:29.129Z,25.01
2017-09-21T14:27:56.621Z,25.23
2017-09-21T14:30:24.110Z,25.56
2017-09-21T14:32:51.613Z,25.64
2017-09-21T14:35:19.089Z,25.84
2017-09-21T14:37:46.552Z,26.01
2017-09-21T14:40:14.093Z,26.05
2017-09-21T14:42:41.568Z,25.97
2017-09-21T14:45:09.086Z,26.15
2017-09-21T14:47:36.633Z,25.89
2017-09-21T14:50:04.169Z,25.70
2017-09-21T14:52:31.662Z,25.95
2017-09-21T14:54:59.174Z,26.23
2017-09-21T14:57:26.674Z,26.41
2017-09-21T14:59:54.183Z,26.27
2017-09-21T15:02:21.655Z,26.08
2017-09-21T15:04:49.233Z,26.12
2017-09-21T15:07:16.732Z,26.25
2017-09-21T15:09:44.214Z,26.31
2017-09-21T15:12:11.711Z,26.36
2017-09-21T15:14:39.173Z,26.25
2017-09-21T15:17:06.705Z,26.21
2017-09-21T15:19:34.211Z,26.19
2017-09-21T15:22:01.741Z,26.11
2017-09-21T15:24:29.210Z,25.89
2017-09-21T15:26:57.012Z,25.49
2017-09-21T15:29:24.497Z,24.94
2017-09-21T15:31:51.985Z,24.66
2017-09-21T15:34:19.458Z,24.22
2017-09-21T15:36:46.917Z,24.12
2017-09-21T15:39:14.412Z,23.90
2017-09-21T15:41:41.964Z,23.73
2017-09-21T15:44:09.444Z,23.64
2017-09-21T15:46:36.929Z,23.45
2017-09-21T15:49:04.408Z,23.43
2017-09-21T15:51:31.917Z,23.26
2017-09-21T15:53:59.405Z,23.10
2017-09-21T15:56:26.958Z,23.10
2017-09-21T15:58:54.445Z,23.05
2017-09-21T16:01:21.962Z,22.90
2017-09-21T16:03:49.464Z,22.88
2017-09-21T16:06:16.973Z,22.86
2017-09-21T16:08:44.502Z,22.83
2017-09-21T16:11:12.001Z,22.65
2017-09-21T16:13:39.454Z,22.67
2017-09-21T16:16:06.952Z,22.58
2017-09-21T16:18:34.993Z,22.51
2017-09-21T16:21:02.487Z,22.49
2017-09-21T16:23:29.960Z,22.44
2017-09-21T16:25:57.457Z,22.41
2017-09-21T16:28:24.927Z,22.27
2017-09-21T16:30:52.414Z,22.17
2017-09-21T16:33:19.885Z,22.10
2017-09-21T16:35:47.504Z,22.03
2017-09-21T16:38:14.974Z,21.85
2017-09-21T16:40:42.433Z,21.67
2017-09-21T16:43:09.917Z,21.39
2017-09-21T16:45:37.369Z,21.23
2017-09-21T16:48:04.893Z,21.10
2017-09-21T16:50:32.365Z,21.00
2017-09-21T16:52:59.883Z,20.92
2017-09-21T16:55:27.398Z,20.76
2017-09-21T16:57:54.950Z,20.65
2017-09-21T17:00:22.584Z,20.67
2017-09-21T17:02:50.164Z,20.63
2017-09-21T17:05:17.799Z,20.56
2017-09-21T17:07:45.274Z,20.41
2017-09-21T17:10:12.753Z,20.37
2017-09-21T17:12:40.282Z,20.32
2017-09-21T17:15:07.769Z,20.26
2017-09-21T17:17:35.266Z,20.15
2017-09-21T17:20:02.806Z,20.09
2017-09-21T17:22:30.287Z,19.99
2017-09-21T17:24:57.824Z,19.96
2017-09-21T17:27:25.274Z,19.82
2017-09-21T17:29:52.769Z,19.61
2017-09-21T17:32:20.283Z,19.54
2017-09-21T17:34:48.369Z,19.45
2017-09-21T17:37:15.832Z,19.33
2017-09-21T17:39:43.304Z,19.25
2017-09-21T17:42:10.763Z,19.17
2017-09-21T17:44:38.254Z,19.10
2017-09-21T17:47:05.701Z,19.08
2017-09-21T17:49:33.152Z,18.96
2017-09-21T17:52:00.633Z,18.83
2017-09-21T17:54:28.089Z,18.82
2017-09-21T17:56:55.577Z,18.59
2017-09-21T17:59:23.061Z,18.31
2017-09-21T18:01:50.547Z,18.23
2017-09-21T18:04:18.114Z,18.14
2017-09-21T18:06:45.597Z,17.99
2017-09-21T18:09:13.065Z,17.97
2017-09-21T18:11:40.537Z,17.88
2017-09-21T18:14:08.018Z,17.85
2017-09-21T18:16:35.477Z,17.77
2017-09-21T18:19:02.949Z,17.64
2017-09-21T18:21:30.401Z,17.68
2017-09-21T18:23:57.922Z,17.75
2017-09-21T18:26:25.389Z,17.70
2017-09-21T18:28:52.921Z,17.58
2017-09-21T18:31:20.387Z,17.52
2017-09-21T18:33:47.917Z,17.30
2017-09-21T18:36:15.395Z,17.20
2017-09-21T18:38:42.843Z,17.19
2017-09-21T18:41:10.321Z,17.03
2017-09-21T18:43:37.853Z,17.04
2017-09-21T18:46:05.363Z,16.99
2017-09-21T18:48:32.854Z,16.97
2017-09-21T18:51:00.344Z,16.71
2017-09-21T18:53:27.830Z,16.71
2017-09-21T18:55:55.321Z,16.67
2017-09-21T18:58:22.792Z,16.69
2017-09-21T19:00:50.257Z,16.70
2017-09-21T19:03:17.798Z,16.63
2017-09-21T19:05:45.270Z,16.48
2017-09-21T19:08:12.772Z,16.45
2017-09-21T19:10:40.231Z,16.46
2017-09-21T19:13:07.727Z,16.43
2017-09-21T19:15:35.191Z,16.42
2017-09-21T19:18:02.709Z,16.31
2017-09-21T19:20:30.179Z,16.26
2017-09-21T19:22:57.687Z,16.24
2017-09-21T19:25:25.195Z,16.16
2017-09-21T19:27:52.662Z,16.11
2017-09-21T19:30:20.188Z,16.00
2017-09-21T19:32:49.280Z,16.05
2017-09-21T19:35:16.790Z,16.04
2017-09-21T19:37:44.250Z,16.02
2017-09-21T19:40:11.750Z,15.98
2017-09-21T19:42:39.230Z,15.91
2017-09-21T19:45:06.767Z,15.77
2017-09-21T19:47:34.241Z,15.64
2017-09-21T19:50:01.750Z,15.61
2017-09-21T19:52:29.282Z,15.55
2017-09-21T19:54:56.772Z,15.51
2017-09-21T19:57:24.269Z,15.34
2017-09-21T19:59:51.730Z,15.45
2017-09-21T20:02:19.228Z,15.23
2017-09-21T20:04:47.290Z,15.28
2017-09-21T20:07:14.797Z,15.25
2017-09-21T20:09:42.272Z,15.22
2017-09-21T20:12:09.776Z,15.18
2017-09-21T20:14:37.283Z,15.12
2017-09-21T20:17:04.809Z,15.09
2017-09-21T20:19:32.270Z,15.16
2017-09-21T20:21:59.769Z,15.15
2017-09-21T20:24:27.277Z,15.14
2017-09-21T20:26:54.728Z,15.01
2017-09-21T20:29:22.221Z,14.95
2017-09-21T20:31:49.703Z,14.96
2017-09-21T20:34:17.209Z,15.00
2017-09-21T20:36:44.666Z,14.91
2017-09-21T20:39:12.144Z,14.85
2017-09-21T20:41:39.669Z,14.93
2017-09-21T20:44:07.125Z,14.93
2017-09-21T20:46:34.641Z,14.87
2017-09-21T20:49:02.097Z,14.92
2017-09-21T20:51:29.577Z,14.93
2017-09-21T20:53:57.045Z,14.92
2017-09-21T20:56:24.556Z,14.66
2017-09-21T20:58:52.059Z,14.49
2017-09-21T21:01:19.534Z,14.41
2017-09-21T21:03:47.088Z,14.48
2017-09-21T21:06:14.554Z,14.50
2017-09-21T21:08:42.133Z,14.55
2017-09-21T21:11:09.585Z,14.51
2017-09-21T21:13:37.057Z,14.50
2017-09-21T21:16:04.636Z,14.54
2017-09-21T21:18:32.149Z,14.32
2017-09-21T21:20:59.634Z,14.39
2017-09-21T21:23:27.076Z,14.17
2017-09-21T21:25:54.566Z,14.37
2017-09-21T21:28:22.038Z,14.29
2017-09-21T21:30:49.538Z,14.25
2017-09-21T21:33:17.015Z,14.25
2017-09-21T21:35:44.497Z,14.12
2017-09-21T21:38:11.996Z,14.12
2017-09-21T21:40:39.494Z,14.11
2017-09-21T21:43:06.965Z,14.11
2017-09-21T21:45:34.436Z,14.07
2017-09-21T21:48:01.941Z,14.07
2017-09-21T21:50:29.441Z,14.05
2017-09-21T21:52:56.962Z,13.94
2017-09-21T21:55:24.463Z,13.90
2017-09-21T21:57:51.947Z,13.85
2017-09-21T22:00:19.441Z,13.90
2017-09-21T22:02:46.895Z,13.89
2017-09-21T22:05:14.380Z,13.87
2017-09-21T22:07:41.849Z,13.80
2017-09-21T22:10:09.320Z,13.75
2017-09-21T22:12:36.766Z,13.79
2017-09-21T22:15:04.277Z,13.65
2017-09-21T22:17:31.767Z,13.65
2017-09-21T22:19:59.269Z,13.48
2017-09-21T22:22:26.717Z,13.40
2017-09-21T22:24:54.171Z,13.39
2017-09-21T22:27:21.673Z,13.46
2017-09-21T22:29:49.129Z,13.48
2017-09-21T22:32:16.622Z,13.40
2017-09-21T22:34:44.071Z,13.39
2017-09-21T22:37:11.738Z,13.40
2017-09-21T22:39:39.205Z,13.34
2017-09-21T22:42:07.482Z,13.35
2017-09-21T22:44:35.013Z,13.23
2017-09-21T22:47:02.476Z,13.15
2017-09-21T22:49:30.012Z,13.11
2017-09-21T22:51:57.502Z,13.16
2017-09-21T22:54:25.037Z,13.27
2017-09-21T22:56:52.550Z,13.25
2017-09-21T22:59:20.031Z,13.12
2017-09-21T23:01:47.493Z,13.10
2017-09-21T23:04:15.011Z,12.89
2017-09-21T23:06:42.475Z,13.03
2017-09-21T23:09:09.962Z,13.06
2017-09-21T23:11:37.410Z,13.05
2017-09-21T23:14:04.885Z,13.06
2017-09-21T23:16:32.338Z,12.93
2017-09-21T23:19:00.084Z,12.94
2017-09-21T23:21:27.541Z,12.88
2017-09-21T23:23:55.007Z,12.77
2017-09-21T23:26:22.502Z,12.75
2017-09-21T23:28:49.949Z,12.79
2017-09-21T23:31:18.057Z,12.85
2017-09-21T23:33:45.497Z,12.90
2017-09-21T23:36:12.970Z,12.88
2017-09-21T23:38:40.441Z,12.81
2017-09-21T23:41:07.945Z,12.75
2017-09-21T23:43:35.433Z,12.83
2017-09-21T23:46:02.905Z,12.90
2017-09-21T23:48:30.407Z,12.96
2017-09-21T23:50:57.868Z,12.94
2017-09-21T23:53:25.372Z,12.81
2017-09-21T23:55:52.832Z,12.73
2017-09-21T23:58:20.352Z,12.70
